sensor_id;sensor_type;location;lat;lon;timestamp;P1;durP1;ratioP1;P2;durP2;ratioP2
3099;SDS011;1560;52.746;13.474;2023-04-05T00:00:24;4.60;;;3.00;;
3099;SDS011;1560;52.746;13.474;2023-04-05T00:02:53;4.60;;;2.50;;
3099;SDS011;1560;52.746;13.474;2023-04-05T00:08:01;5.00;;;2.40;;
3099;SDS011;1560;52.746;13.474;2023-04-05T00:10:32;6.42;;;3.35;;
3099;SDS011;1560;52.746;13.474;2023-04-05T00:13:03;4.05;;;2.70;;
3099;SDS011;1560;52.746;13.474;2023-04-05T00:15:31;6.83;;;3.05;;
3099;SDS011;1560;52.746;13.474;2023-04-05T00:18:00;4.08;;;2.67;;
3099;SDS011;1560;52.746;13.474;2023-04-05T00:20:29;5.62;;;3.27;;
3099;SDS011;1560;52.746;13.474;2023-04-05T00:22:59;6.00;;;3.30;;
3099;SDS011;1560;52.746;13.474;2023-04-05T00:25:27;3.40;;;2.33;;
3099;SDS011;1560;52.746;13.474;2023-04-05T00:30:32;5.75;;;2.62;;
3099;SDS011;1560;52.746;13.474;2023-04-05T00:33:01;4.92;;;3.12;;
3099;SDS011;1560;52.746;13.474;2023-04-05T00:35:30;8.90;;;3.40;;
3099;SDS011;1560;52.746;13.474;2023-04-05T00:38:08;5.65;;;3.55;;
3099;SDS011;1560;52.746;13.474;2023-04-05T00:40:36;4.55;;;3.10;;
3099;SDS011;1560;52.746;13.474;2023-04-05T00:43:05;5.65;;;2.80;;
3099;SDS011;1560;52.746;13.474;2023-04-05T00:45:34;8.35;;;3.92;;
3099;SDS011;1560;52.746;13.474;2023-04-05T00:48:04;5.40;;;2.92;;
3099;SDS011;1560;52.746;13.474;2023-04-05T00:53:09;4.50;;;2.77;;
3099;SDS011;1560;52.746;13.474;2023-04-05T00:55:38;5.47;;;3.12;;
3099;SDS011;1560;52.746;13.474;2023-04-05T00:58:08;6.80;;;3.33;;
3099;SDS011;1560;52.746;13.474;2023-04-05T01:00:36;5.95;;;3.17;;
3099;SDS011;1560;52.746;13.474;2023-04-05T01:03:06;5.83;;;2.95;;
3099;SDS011;1560;52.746;13.474;2023-04-05T01:05:37;7.40;;;3.10;;
3099;SDS011;1560;52.746;13.474;2023-04-05T01:08:11;5.45;;;3.45;;
3099;SDS011;1560;52.746;13.474;2023-04-05T01:10:51;10.72;;;2.92;;
3099;SDS011;1560;52.746;13.474;2023-04-05T01:13:24;5.55;;;3.33;;
3099;SDS011;1560;52.746;13.474;2023-04-05T01:15:53;6.45;;;2.95;;
3099;SDS011;1560;52.746;13.474;2023-04-05T01:18:30;4.17;;;3.00;;
3099;SDS011;1560;52.746;13.474;2023-04-05T01:21:04;9.03;;;3.67;;
3099;SDS011;1560;52.746;13.474;2023-04-05T01:23:37;6.15;;;3.22;;
3099;SDS011;1560;52.746;13.474;2023-04-05T01:29:32;5.15;;;3.20;;
3099;SDS011;1560;52.746;13.474;2023-04-05T01:32:14;5.12;;;3.12;;
3099;SDS011;1560;52.746;13.474;2023-04-05T01:34:55;4.15;;;2.65;;
3099;SDS011;1560;52.746;13.474;2023-04-05T01:37:25;5.83;;;2.80;;
3099;SDS011;1560;52.746;13.474;2023-04-05T01:39:56;3.72;;;2.50;;
3099;SDS011;1560;52.746;13.474;2023-04-05T01:45:01;4.47;;;2.35;;
3099;SDS011;1560;52.746;13.474;2023-04-05T01:47:31;4.35;;;2.80;;
3099;SDS011;1560;52.746;13.474;2023-04-05T01:50:00;8.73;;;3.10;;
3099;SDS011;1560;52.746;13.474;2023-04-05T01:52:29;13.48;;;3.50;;
3099;SDS011;1560;52.746;13.474;2023-04-05T01:55:08;3.87;;;2.62;;
3099;SDS011;1560;52.746;13.474;2023-04-05T01:57:37;5.00;;;2.65;;
3099;SDS011;1560;52.746;13.474;2023-04-05T02:02:43;3.62;;;2.72;;
3099;SDS011;1560;52.746;13.474;2023-04-05T02:05:12;5.65;;;2.47;;
3099;SDS011;1560;52.746;13.474;2023-04-05T02:07:41;5.67;;;2.52;;
3099;SDS011;1560;52.746;13.474;2023-04-05T02:12:46;5.78;;;2.90;;
3099;SDS011;1560;52.746;13.474;2023-04-05T02:15:15;5.08;;;3.25;;
3099;SDS011;1560;52.746;13.474;2023-04-05T02:17:44;10.78;;;7.20;;
3099;SDS011;1560;52.746;13.474;2023-04-05T02:20:13;11.85;;;5.50;;
3099;SDS011;1560;52.746;13.474;2023-04-05T02:22:44;8.55;;;5.92;;
3099;SDS011;1560;52.746;13.474;2023-04-05T02:25:12;14.78;;;6.92;;
3099;SDS011;1560;52.746;13.474;2023-04-05T02:27:41;16.17;;;9.85;;
3099;SDS011;1560;52.746;13.474;2023-04-05T02:30:11;9.43;;;7.60;;
3099;SDS011;1560;52.746;13.474;2023-04-05T02:35:17;5.12;;;3.35;;
3099;SDS011;1560;52.746;13.474;2023-04-05T02:37:46;7.87;;;3.72;;
3099;SDS011;1560;52.746;13.474;2023-04-05T02:40:24;5.12;;;3.12;;
3099;SDS011;1560;52.746;13.474;2023-04-05T02:42:52;7.00;;;3.33;;
3099;SDS011;1560;52.746;13.474;2023-04-05T02:45:21;4.70;;;2.80;;
3099;SDS011;1560;52.746;13.474;2023-04-05T02:47:50;5.10;;;3.15;;
3099;SDS011;1560;52.746;13.474;2023-04-05T02:50:19;4.35;;;2.40;;
3099;SDS011;1560;52.746;13.474;2023-04-05T02:52:57;4.37;;;3.02;;
3099;SDS011;1560;52.746;13.474;2023-04-05T02:55:26;3.02;;;2.52;;
3099;SDS011;1560;52.746;13.474;2023-04-05T02:57:57;4.00;;;2.47;;
3099;SDS011;1560;52.746;13.474;2023-04-05T03:00:26;5.60;;;3.15;;
3099;SDS011;1560;52.746;13.474;2023-04-05T03:02:55;3.85;;;2.42;;
3099;SDS011;1560;52.746;13.474;2023-04-05T03:05:24;6.25;;;2.70;;
3099;SDS011;1560;52.746;13.474;2023-04-05T03:07:54;4.33;;;2.70;;
3099;SDS011;1560;52.746;13.474;2023-04-05T03:10:31;5.03;;;2.83;;
3099;SDS011;1560;52.746;13.474;2023-04-05T03:13:02;6.12;;;3.20;;
3099;SDS011;1560;52.746;13.474;2023-04-05T03:15:39;5.25;;;2.90;;
3099;SDS011;1560;52.746;13.474;2023-04-05T03:18:09;5.67;;;2.50;;
3099;SDS011;1560;52.746;13.474;2023-04-05T03:20:38;5.80;;;2.83;;
3099;SDS011;1560;52.746;13.474;2023-04-05T03:23:15;6.97;;;2.58;;
3099;SDS011;1560;52.746;13.474;2023-04-05T03:25:44;6.60;;;3.40;;
3099;SDS011;1560;52.746;13.474;2023-04-05T03:28:13;6.92;;;3.37;;
3099;SDS011;1560;52.746;13.474;2023-04-05T03:33:20;4.03;;;2.75;;
3099;SDS011;1560;52.746;13.474;2023-04-05T03:35:49;5.87;;;3.02;;
3099;SDS011;1560;52.746;13.474;2023-04-05T03:38:18;4.80;;;2.60;;
3099;SDS011;1560;52.746;13.474;2023-04-05T03:40:47;7.37;;;2.85;;
3099;SDS011;1560;52.746;13.474;2023-04-05T03:45:52;6.30;;;2.80;;
3099;SDS011;1560;52.746;13.474;2023-04-05T03:48:21;6.15;;;3.15;;
3099;SDS011;1560;52.746;13.474;2023-04-05T03:50:50;6.67;;;3.30;;
3099;SDS011;1560;52.746;13.474;2023-04-05T03:53:18;4.70;;;2.80;;
3099;SDS011;1560;52.746;13.474;2023-04-05T03:55:48;4.10;;;2.20;;
3099;SDS011;1560;52.746;13.474;2023-04-05T03:58:27;9.03;;;3.60;;
3099;SDS011;1560;52.746;13.474;2023-04-05T04:00:57;6.80;;;2.90;;
3099;SDS011;1560;52.746;13.474;2023-04-05T04:03:26;4.53;;;3.00;;
3099;SDS011;1560;52.746;13.474;2023-04-05T04:05:56;4.03;;;2.58;;
3099;SDS011;1560;52.746;13.474;2023-04-05T04:08:25;5.83;;;3.17;;
3099;SDS011;1560;52.746;13.474;2023-04-05T04:13:30;5.75;;;2.87;;
3099;SDS011;1560;52.746;13.474;2023-04-05T04:15:59;3.77;;;2.22;;
3099;SDS011;1560;52.746;13.474;2023-04-05T04:18:29;4.72;;;2.70;;
3099;SDS011;1560;52.746;13.474;2023-04-05T04:21:00;3.80;;;2.85;;
3099;SDS011;1560;52.746;13.474;2023-04-05T04:23:31;9.35;;;3.37;;
3099;SDS011;1560;52.746;13.474;2023-04-05T04:26:02;5.87;;;3.20;;
3099;SDS011;1560;52.746;13.474;2023-04-05T04:31:10;5.60;;;2.92;;
3099;SDS011;1560;52.746;13.474;2023-04-05T04:33:40;12.63;;;4.80;;
3099;SDS011;1560;52.746;13.474;2023-04-05T04:36:09;5.65;;;3.62;;
3099;SDS011;1560;52.746;13.474;2023-04-05T04:41:16;6.10;;;3.08;;
3099;SDS011;1560;52.746;13.474;2023-04-05T04:43:48;5.12;;;3.25;;
3099;SDS011;1560;52.746;13.474;2023-04-05T04:46:17;5.62;;;3.00;;
3099;SDS011;1560;52.746;13.474;2023-04-05T04:51:23;5.33;;;3.42;;
3099;SDS011;1560;52.746;13.474;2023-04-05T04:53:52;9.63;;;3.30;;
3099;SDS011;1560;52.746;13.474;2023-04-05T04:56:21;6.45;;;3.83;;
3099;SDS011;1560;52.746;13.474;2023-04-05T04:58:52;6.87;;;3.60;;
3099;SDS011;1560;52.746;13.474;2023-04-05T05:01:22;11.48;;;4.83;;
3099;SDS011;1560;52.746;13.474;2023-04-05T05:03:51;7.37;;;3.80;;
3099;SDS011;1560;52.746;13.474;2023-04-05T05:06:20;6.12;;;3.52;;
3099;SDS011;1560;52.746;13.474;2023-04-05T05:08:49;6.65;;;4.20;;
3099;SDS011;1560;52.746;13.474;2023-04-05T05:13:54;5.65;;;3.30;;
3099;SDS011;1560;52.746;13.474;2023-04-05T05:16:23;8.93;;;3.87;;
3099;SDS011;1560;52.746;13.474;2023-04-05T05:18:53;8.75;;;3.45;;
3099;SDS011;1560;52.746;13.474;2023-04-05T05:21:22;6.05;;;3.35;;
3099;SDS011;1560;52.746;13.474;2023-04-05T05:23:52;6.87;;;3.47;;
3099;SDS011;1560;52.746;13.474;2023-04-05T05:26:21;6.37;;;3.58;;
3099;SDS011;1560;52.746;13.474;2023-04-05T05:28:50;6.55;;;3.70;;
3099;SDS011;1560;52.746;13.474;2023-04-05T05:31:19;6.78;;;4.22;;
3099;SDS011;1560;52.746;13.474;2023-04-05T05:36:24;8.35;;;4.20;;
3099;SDS011;1560;52.746;13.474;2023-04-05T05:38:53;6.60;;;3.72;;
3099;SDS011;1560;52.746;13.474;2023-04-05T05:41:22;11.00;;;4.15;;
3099;SDS011;1560;52.746;13.474;2023-04-05T05:43:51;9.25;;;3.92;;
3099;SDS011;1560;52.746;13.474;2023-04-05T05:46:21;5.83;;;3.45;;
3099;SDS011;1560;52.746;13.474;2023-04-05T05:48:50;9.55;;;3.92;;
3099;SDS011;1560;52.746;13.474;2023-04-05T05:51:19;6.75;;;3.70;;
3099;SDS011;1560;52.746;13.474;2023-04-05T05:53:47;11.68;;;3.70;;
3099;SDS011;1560;52.746;13.474;2023-04-05T05:56:16;11.48;;;4.45;;
3099;SDS011;1560;52.746;13.474;2023-04-05T05:58:46;6.12;;;3.62;;
3099;SDS011;1560;52.746;13.474;2023-04-05T06:01:15;6.35;;;3.37;;
3099;SDS011;1560;52.746;13.474;2023-04-05T06:03:43;8.98;;;3.77;;
3099;SDS011;1560;52.746;13.474;2023-04-05T06:06:12;6.97;;;3.52;;
3099;SDS011;1560;52.746;13.474;2023-04-05T06:08:41;8.68;;;4.15;;
3099;SDS011;1560;52.746;13.474;2023-04-05T06:11:15;8.33;;;3.92;;
3099;SDS011;1560;52.746;13.474;2023-04-05T06:13:45;6.90;;;4.62;;
3099;SDS011;1560;52.746;13.474;2023-04-05T06:16:14;6.08;;;3.42;;
3099;SDS011;1560;52.746;13.474;2023-04-05T06:21:19;7.92;;;4.05;;
3099;SDS011;1560;52.746;13.474;2023-04-05T06:23:47;7.75;;;4.50;;
3099;SDS011;1560;52.746;13.474;2023-04-05T06:26:17;6.37;;;3.98;;
3099;SDS011;1560;52.746;13.474;2023-04-05T06:28:46;10.93;;;4.62;;
3099;SDS011;1560;52.746;13.474;2023-04-05T06:31:15;7.08;;;4.05;;
3099;SDS011;1560;52.746;13.474;2023-04-05T06:36:21;6.12;;;3.60;;
3099;SDS011;1560;52.746;13.474;2023-04-05T06:38:52;5.70;;;3.62;;
3099;SDS011;1560;52.746;13.474;2023-04-05T06:41:21;9.65;;;4.50;;
3099;SDS011;1560;52.746;13.474;2023-04-05T06:46:26;7.85;;;3.80;;
3099;SDS011;1560;52.746;13.474;2023-04-05T06:48:55;6.92;;;3.92;;
3099;SDS011;1560;52.746;13.474;2023-04-05T06:51:24;8.50;;;3.92;;
3099;SDS011;1560;52.746;13.474;2023-04-05T06:53:54;8.03;;;3.50;;
3099;SDS011;1560;52.746;13.474;2023-04-05T06:56:23;7.00;;;4.40;;
3099;SDS011;1560;52.746;13.474;2023-04-05T07:01:28;7.50;;;3.85;;
3099;SDS011;1560;52.746;13.474;2023-04-05T07:03:57;9.30;;;4.97;;
3099;SDS011;1560;52.746;13.474;2023-04-05T07:06:26;8.20;;;4.20;;
3099;SDS011;1560;52.746;13.474;2023-04-05T07:08:55;7.92;;;4.53;;
3099;SDS011;1560;52.746;13.474;2023-04-05T07:11:24;10.60;;;4.62;;
3099;SDS011;1560;52.746;13.474;2023-04-05T07:13:53;9.73;;;4.10;;
3099;SDS011;1560;52.746;13.474;2023-04-05T07:18:58;8.43;;;3.92;;
3099;SDS011;1560;52.746;13.474;2023-04-05T07:21:27;8.53;;;4.70;;
3099;SDS011;1560;52.746;13.474;2023-04-05T07:23:56;7.12;;;4.85;;
3099;SDS011;1560;52.746;13.474;2023-04-05T07:29:03;6.72;;;4.47;;
3099;SDS011;1560;52.746;13.474;2023-04-05T07:31:33;6.50;;;3.90;;
3099;SDS011;1560;52.746;13.474;2023-04-05T07:34:02;7.17;;;4.15;;
3099;SDS011;1560;52.746;13.474;2023-04-05T07:36:31;7.25;;;4.58;;
3099;SDS011;1560;52.746;13.474;2023-04-05T07:39:00;8.50;;;4.58;;
3099;SDS011;1560;52.746;13.474;2023-04-05T07:41:30;11.97;;;5.15;;
3099;SDS011;1560;52.746;13.474;2023-04-05T07:44:00;11.35;;;4.83;;
3099;SDS011;1560;52.746;13.474;2023-04-05T07:46:29;9.75;;;4.80;;
3099;SDS011;1560;52.746;13.474;2023-04-05T07:48:58;7.78;;;5.12;;
3099;SDS011;1560;52.746;13.474;2023-04-05T07:51:27;8.38;;;4.62;;
3099;SDS011;1560;52.746;13.474;2023-04-05T07:53:56;9.85;;;4.42;;
3099;SDS011;1560;52.746;13.474;2023-04-05T07:59:03;7.60;;;4.95;;
3099;SDS011;1560;52.746;13.474;2023-04-05T08:01:31;13.13;;;4.90;;
3099;SDS011;1560;52.746;13.474;2023-04-05T08:04:00;8.25;;;4.33;;
3099;SDS011;1560;52.746;13.474;2023-04-05T08:06:29;9.10;;;4.72;;
3099;SDS011;1560;52.746;13.474;2023-04-05T08:08:58;7.95;;;4.00;;
3099;SDS011;1560;52.746;13.474;2023-04-05T08:14:05;5.37;;;4.33;;
3099;SDS011;1560;52.746;13.474;2023-04-05T08:16:34;10.32;;;4.15;;
3099;SDS011;1560;52.746;13.474;2023-04-05T08:19:03;6.00;;;3.52;;
3099;SDS011;1560;52.746;13.474;2023-04-05T08:24:08;5.15;;;3.40;;
3099;SDS011;1560;52.746;13.474;2023-04-05T08:26:37;5.78;;;3.70;;
3099;SDS011;1560;52.746;13.474;2023-04-05T08:29:07;4.22;;;2.65;;
3099;SDS011;1560;52.746;13.474;2023-04-05T08:31:36;5.28;;;2.95;;
3099;SDS011;1560;52.746;13.474;2023-04-05T08:34:04;4.75;;;2.50;;
3099;SDS011;1560;52.746;13.474;2023-04-05T08:36:34;11.45;;;2.83;;
3099;SDS011;1560;52.746;13.474;2023-04-05T08:39:03;4.83;;;2.75;;
3099;SDS011;1560;52.746;13.474;2023-04-05T08:44:08;4.25;;;2.80;;
3099;SDS011;1560;52.746;13.474;2023-04-05T08:46:38;5.22;;;2.55;;
3099;SDS011;1560;52.746;13.474;2023-04-05T08:49:17;4.00;;;2.80;;
3099;SDS011;1560;52.746;13.474;2023-04-05T08:51:46;5.08;;;2.50;;
3099;SDS011;1560;52.746;13.474;2023-04-05T08:54:16;8.05;;;2.50;;
3099;SDS011;1560;52.746;13.474;2023-04-05T08:59:22;6.12;;;2.50;;
3099;SDS011;1560;52.746;13.474;2023-04-05T09:01:51;7.60;;;2.45;;
3099;SDS011;1560;52.746;13.474;2023-04-05T09:04:22;5.03;;;3.05;;
3099;SDS011;1560;52.746;13.474;2023-04-05T09:06:54;3.40;;;2.33;;
3099;SDS011;1560;52.746;13.474;2023-04-05T09:09:24;3.30;;;2.40;;
3099;SDS011;1560;52.746;13.474;2023-04-05T09:12:03;14.50;;;7.78;;
3099;SDS011;1560;52.746;13.474;2023-04-05T09:14:33;4.83;;;2.45;;
3099;SDS011;1560;52.746;13.474;2023-04-05T09:17:03;3.37;;;2.15;;
3099;SDS011;1560;52.746;13.474;2023-04-05T09:19:32;4.42;;;2.40;;
3099;SDS011;1560;52.746;13.474;2023-04-05T09:22:01;6.03;;;2.50;;
3099;SDS011;1560;52.746;13.474;2023-04-05T09:24:32;6.85;;;2.47;;
3099;SDS011;1560;52.746;13.474;2023-04-05T09:27:05;6.30;;;3.12;;
3099;SDS011;1560;52.746;13.474;2023-04-05T09:29:36;8.10;;;3.10;;
3099;SDS011;1560;52.746;13.474;2023-04-05T09:32:06;6.20;;;3.22;;
3099;SDS011;1560;52.746;13.474;2023-04-05T09:34:36;7.72;;;3.50;;
3099;SDS011;1560;52.746;13.474;2023-04-05T09:37:11;5.80;;;3.58;;
3099;SDS011;1560;52.746;13.474;2023-04-05T09:42:17;6.28;;;2.70;;
3099;SDS011;1560;52.746;13.474;2023-04-05T09:44:53;5.42;;;3.00;;
3099;SDS011;1560;52.746;13.474;2023-04-05T09:47:24;3.65;;;2.37;;
3099;SDS011;1560;52.746;13.474;2023-04-05T09:49:56;5.42;;;2.85;;
3099;SDS011;1560;52.746;13.474;2023-04-05T09:52:25;5.45;;;2.52;;
3099;SDS011;1560;52.746;13.474;2023-04-05T09:54:58;5.85;;;2.30;;
3099;SDS011;1560;52.746;13.474;2023-04-05T10:00:16;5.72;;;2.50;;
3099;SDS011;1560;52.746;13.474;2023-04-05T10:02:46;4.37;;;2.72;;
3099;SDS011;1560;52.746;13.474;2023-04-05T10:05:17;5.60;;;3.40;;
3099;SDS011;1560;52.746;13.474;2023-04-05T10:07:48;4.60;;;2.67;;
3099;SDS011;1560;52.746;13.474;2023-04-05T10:10:18;7.35;;;2.27;;
3099;SDS011;1560;52.746;13.474;2023-04-05T10:15:25;4.25;;;2.35;;
3099;SDS011;1560;52.746;13.474;2023-04-05T10:17:58;4.92;;;3.12;;
3099;SDS011;1560;52.746;13.474;2023-04-05T10:20:38;9.43;;;2.87;;
3099;SDS011;1560;52.746;13.474;2023-04-05T10:23:07;4.05;;;2.80;;
3099;SDS011;1560;52.746;13.474;2023-04-05T10:25:52;3.67;;;2.80;;
3099;SDS011;1560;52.746;13.474;2023-04-05T10:28:17;9.68;;;2.70;;
3099;SDS011;1560;52.746;13.474;2023-04-05T10:30:50;3.33;;;2.05;;
3099;SDS011;1560;52.746;13.474;2023-04-05T10:33:25;4.20;;;2.65;;
3099;SDS011;1560;52.746;13.474;2023-04-05T10:35:57;4.87;;;2.50;;
3099;SDS011;1560;52.746;13.474;2023-04-05T10:38:28;7.50;;;3.33;;
3099;SDS011;1560;52.746;13.474;2023-04-05T10:43:36;4.65;;;3.08;;
3099;SDS011;1560;52.746;13.474;2023-04-05T10:46:07;6.90;;;2.80;;
3099;SDS011;1560;52.746;13.474;2023-04-05T10:51:16;4.12;;;2.70;;
3099;SDS011;1560;52.746;13.474;2023-04-05T10:53:46;3.67;;;2.52;;
3099;SDS011;1560;52.746;13.474;2023-04-05T10:56:16;5.37;;;3.25;;
3099;SDS011;1560;52.746;13.474;2023-04-05T10:58:46;5.53;;;3.83;;
3099;SDS011;1560;52.746;13.474;2023-04-05T11:01:16;6.12;;;2.58;;
3099;SDS011;1560;52.746;13.474;2023-04-05T11:03:47;5.08;;;2.20;;
3099;SDS011;1560;52.746;13.474;2023-04-05T11:06:17;5.00;;;3.12;;
3099;SDS011;1560;52.746;13.474;2023-04-05T11:08:51;6.20;;;3.40;;
3099;SDS011;1560;52.746;13.474;2023-04-05T11:11:22;6.25;;;2.98;;
3099;SDS011;1560;52.746;13.474;2023-04-05T11:13:53;6.15;;;3.37;;
3099;SDS011;1560;52.746;13.474;2023-04-05T11:18:59;6.95;;;3.70;;
3099;SDS011;1560;52.746;13.474;2023-04-05T11:21:28;8.95;;;2.83;;
3099;SDS011;1560;52.746;13.474;2023-04-05T11:24:06;5.37;;;3.30;;
3099;SDS011;1560;52.746;13.474;2023-04-05T11:29:57;7.60;;;3.30;;
3099;SDS011;1560;52.746;13.474;2023-04-05T11:32:40;6.62;;;3.20;;
3099;SDS011;1560;52.746;13.474;2023-04-05T11:35:13;7.25;;;3.00;;
3099;SDS011;1560;52.746;13.474;2023-04-05T11:40:29;7.17;;;3.45;;
3099;SDS011;1560;52.746;13.474;2023-04-05T11:45:37;5.42;;;3.67;;
3099;SDS011;1560;52.746;13.474;2023-04-05T11:48:09;7.65;;;4.00;;
3099;SDS011;1560;52.746;13.474;2023-04-05T11:50:47;7.03;;;4.15;;
3099;SDS011;1560;52.746;13.474;2023-04-05T11:53:18;6.75;;;3.90;;
3099;SDS011;1560;52.746;13.474;2023-04-05T11:55:47;7.22;;;4.30;;
3099;SDS011;1560;52.746;13.474;2023-04-05T11:58:17;5.78;;;4.10;;
3099;SDS011;1560;52.746;13.474;2023-04-05T12:00:56;7.15;;;3.92;;
3099;SDS011;1560;52.746;13.474;2023-04-05T12:03:26;10.40;;;4.05;;
3099;SDS011;1560;52.746;13.474;2023-04-05T12:05:57;8.40;;;4.30;;
3099;SDS011;1560;52.746;13.474;2023-04-05T12:11:13;7.08;;;4.17;;
3099;SDS011;1560;52.746;13.474;2023-04-05T12:13:44;5.37;;;3.30;;
3099;SDS011;1560;52.746;13.474;2023-04-05T12:16:15;5.55;;;3.30;;
3099;SDS011;1560;52.746;13.474;2023-04-05T12:18:44;6.17;;;3.70;;
3099;SDS011;1560;52.746;13.474;2023-04-05T12:21:20;9.55;;;4.17;;
3099;SDS011;1560;52.746;13.474;2023-04-05T12:23:50;10.08;;;4.22;;
3099;SDS011;1560;52.746;13.474;2023-04-05T12:26:19;8.38;;;3.30;;
3099;SDS011;1560;52.746;13.474;2023-04-05T12:28:57;7.15;;;3.70;;
3099;SDS011;1560;52.746;13.474;2023-04-05T12:31:34;9.45;;;3.72;;
3099;SDS011;1560;52.746;13.474;2023-04-05T12:34:04;7.10;;;3.65;;
3099;SDS011;1560;52.746;13.474;2023-04-05T12:36:33;5.75;;;3.67;;
3099;SDS011;1560;52.746;13.474;2023-04-05T12:41:42;6.47;;;3.40;;
3099;SDS011;1560;52.746;13.474;2023-04-05T12:44:13;5.97;;;3.60;;
3099;SDS011;1560;52.746;13.474;2023-04-05T12:46:43;5.70;;;3.70;;
3099;SDS011;1560;52.746;13.474;2023-04-05T12:55:14;6.53;;;3.62;;
3099;SDS011;1560;52.746;13.474;2023-04-05T12:57:43;6.20;;;3.62;;
3099;SDS011;1560;52.746;13.474;2023-04-05T13:00:14;8.20;;;3.90;;
3099;SDS011;1560;52.746;13.474;2023-04-05T13:02:47;6.53;;;3.55;;
3099;SDS011;1560;52.746;13.474;2023-04-05T13:05:22;4.97;;;3.02;;
3099;SDS011;1560;52.746;13.474;2023-04-05T13:14:30;6.22;;;3.83;;
3099;SDS011;1560;52.746;13.474;2023-04-05T13:17:06;8.55;;;3.52;;
3099;SDS011;1560;52.746;13.474;2023-04-05T13:19:39;6.05;;;3.83;;
3099;SDS011;1560;52.746;13.474;2023-04-05T13:22:18;5.20;;;3.30;;
3099;SDS011;1560;52.746;13.474;2023-04-05T13:24:54;5.75;;;3.75;;
3099;SDS011;1560;52.746;13.474;2023-04-05T13:27:23;4.75;;;3.42;;
3099;SDS011;1560;52.746;13.474;2023-04-05T13:36:59;6.72;;;3.30;;
3099;SDS011;1560;52.746;13.474;2023-04-05T13:45:26;7.78;;;4.60;;
3099;SDS011;1560;52.746;13.474;2023-04-05T13:54:42;4.58;;;3.60;;
3099;SDS011;1560;52.746;13.474;2023-04-05T13:57:11;9.60;;;3.72;;
3099;SDS011;1560;52.746;13.474;2023-04-05T13:59:40;6.22;;;3.10;;
3099;SDS011;1560;52.746;13.474;2023-04-05T14:02:09;7.12;;;3.45;;
3099;SDS011;1560;52.746;13.474;2023-04-05T14:04:38;5.05;;;3.55;;
3099;SDS011;1560;52.746;13.474;2023-04-05T14:09:46;5.10;;;3.67;;
3099;SDS011;1560;52.746;13.474;2023-04-05T14:12:42;6.67;;;4.53;;
3099;SDS011;1560;52.746;13.474;2023-04-05T14:15:11;5.25;;;3.85;;
3099;SDS011;1560;52.746;13.474;2023-04-05T14:20:26;5.83;;;3.33;;
3099;SDS011;1560;52.746;13.474;2023-04-05T14:25:32;6.30;;;4.30;;
3099;SDS011;1560;52.746;13.474;2023-04-05T14:28:02;5.70;;;3.42;;
3099;SDS011;1560;52.746;13.474;2023-04-05T14:30:41;4.33;;;3.40;;
3099;SDS011;1560;52.746;13.474;2023-04-05T14:33:09;7.33;;;3.20;;
3099;SDS011;1560;52.746;13.474;2023-04-05T14:35:47;8.18;;;3.80;;
3099;SDS011;1560;52.746;13.474;2023-04-05T14:38:16;5.47;;;3.02;;
3099;SDS011;1560;52.746;13.474;2023-04-05T14:53:53;5.92;;;3.45;;
3099;SDS011;1560;52.746;13.474;2023-04-05T14:56:22;4.62;;;3.05;;
3099;SDS011;1560;52.746;13.474;2023-04-05T15:02:14;4.67;;;3.37;;
3099;SDS011;1560;52.746;13.474;2023-04-05T15:04:43;5.25;;;3.90;;
3099;SDS011;1560;52.746;13.474;2023-04-05T15:15:48;4.87;;;3.45;;
3099;SDS011;1560;52.746;13.474;2023-04-05T15:24:53;4.70;;;3.47;;
3099;SDS011;1560;52.746;13.474;2023-04-05T15:27:43;9.38;;;4.05;;
3099;SDS011;1560;52.746;13.474;2023-04-05T15:34:06;5.70;;;3.70;;
3099;SDS011;1560;52.746;13.474;2023-04-05T15:51:01;5.87;;;3.42;;
3099;SDS011;1560;52.746;13.474;2023-04-05T15:53:45;4.37;;;3.33;;
3099;SDS011;1560;52.746;13.474;2023-04-05T16:17:36;6.40;;;3.58;;
3099;SDS011;1560;52.746;13.474;2023-04-05T16:20:35;8.08;;;3.75;;
3099;SDS011;1560;52.746;13.474;2023-04-05T18:40:10;2.20;;;1.60;;
3099;SDS011;1560;52.746;13.474;2023-04-05T18:42:40;3.83;;;1.70;;
3099;SDS011;1560;52.746;13.474;2023-04-05T18:45:11;2.33;;;1.50;;
3099;SDS011;1560;52.746;13.474;2023-04-05T18:47:41;5.08;;;2.40;;
3099;SDS011;1560;52.746;13.474;2023-04-05T18:50:14;3.35;;;1.80;;
3099;SDS011;1560;52.746;13.474;2023-04-05T19:03:33;6.03;;;2.20;;
3099;SDS011;1560;52.746;13.474;2023-04-05T19:06:02;4.70;;;2.22;;
3099;SDS011;1560;52.746;13.474;2023-04-05T19:11:09;3.95;;;2.00;;
3099;SDS011;1560;52.746;13.474;2023-04-05T19:13:38;3.65;;;2.00;;
3099;SDS011;1560;52.746;13.474;2023-04-05T19:16:07;7.60;;;2.17;;
3099;SDS011;1560;52.746;13.474;2023-04-05T19:18:36;3.83;;;1.77;;
3099;SDS011;1560;52.746;13.474;2023-04-05T19:21:06;3.52;;;1.98;;
3099;SDS011;1560;52.746;13.474;2023-04-05T19:37:19;2.90;;;1.50;;
3099;SDS011;1560;52.746;13.474;2023-04-05T19:39:50;2.17;;;1.42;;
3099;SDS011;1560;52.746;13.474;2023-04-05T19:45:07;4.28;;;1.72;;
3099;SDS011;1560;52.746;13.474;2023-04-05T19:47:42;3.05;;;1.70;;
3099;SDS011;1560;52.746;13.474;2023-04-05T19:56:38;3.58;;;1.62;;
3099;SDS011;1560;52.746;13.474;2023-04-05T19:59:26;3.52;;;1.37;;
3099;SDS011;1560;52.746;13.474;2023-04-05T20:02:08;3.02;;;2.02;;
3099;SDS011;1560;52.746;13.474;2023-04-05T20:04:44;3.52;;;1.57;;
3099;SDS011;1560;52.746;13.474;2023-04-05T20:07:14;3.75;;;1.52;;
3099;SDS011;1560;52.746;13.474;2023-04-05T20:09:43;2.45;;;1.92;;
3099;SDS011;1560;52.746;13.474;2023-04-05T20:12:12;9.78;;;2.20;;
3099;SDS011;1560;52.746;13.474;2023-04-05T20:17:18;3.65;;;1.75;;
3099;SDS011;1560;52.746;13.474;2023-04-05T20:19:54;4.50;;;2.37;;
3099;SDS011;1560;52.746;13.474;2023-04-05T20:22:32;4.87;;;2.22;;
3099;SDS011;1560;52.746;13.474;2023-04-05T20:25:01;4.78;;;2.37;;
3099;SDS011;1560;52.746;13.474;2023-04-05T20:27:34;4.65;;;2.08;;
3099;SDS011;1560;52.746;13.474;2023-04-05T20:30:05;3.40;;;2.22;;
3099;SDS011;1560;52.746;13.474;2023-04-05T20:32:37;4.72;;;2.52;;
3099;SDS011;1560;52.746;13.474;2023-04-05T20:35:07;3.95;;;2.62;;
3099;SDS011;1560;52.746;13.474;2023-04-05T20:37:42;5.17;;;3.10;;
3099;SDS011;1560;52.746;13.474;2023-04-05T20:40:12;3.22;;;2.92;;
3099;SDS011;1560;52.746;13.474;2023-04-05T20:42:42;4.37;;;2.55;;
3099;SDS011;1560;52.746;13.474;2023-04-05T20:45:11;4.37;;;2.95;;
3099;SDS011;1560;52.746;13.474;2023-04-05T20:47:41;3.50;;;1.90;;
3099;SDS011;1560;52.746;13.474;2023-04-05T20:50:10;5.62;;;2.90;;
3099;SDS011;1560;52.746;13.474;2023-04-05T20:55:16;4.08;;;2.50;;
3099;SDS011;1560;52.746;13.474;2023-04-05T20:57:46;2.52;;;2.30;;
3099;SDS011;1560;52.746;13.474;2023-04-05T21:00:16;10.13;;;1.98;;
3099;SDS011;1560;52.746;13.474;2023-04-05T21:02:46;6.80;;;2.85;;
3099;SDS011;1560;52.746;13.474;2023-04-05T21:05:15;4.33;;;2.27;;
3099;SDS011;1560;52.746;13.474;2023-04-05T21:10:20;4.30;;;2.20;;
3099;SDS011;1560;52.746;13.474;2023-04-05T21:12:49;4.85;;;2.60;;
3099;SDS011;1560;52.746;13.474;2023-04-05T21:15:18;4.70;;;2.62;;
3099;SDS011;1560;52.746;13.474;2023-04-05T21:17:47;6.40;;;2.33;;
3099;SDS011;1560;52.746;13.474;2023-04-05T21:20:16;3.25;;;2.17;;
3099;SDS011;1560;52.746;13.474;2023-04-05T21:22:45;6.40;;;3.00;;
3099;SDS011;1560;52.746;13.474;2023-04-05T21:25:14;6.83;;;2.80;;
3099;SDS011;1560;52.746;13.474;2023-04-05T21:27:43;3.65;;;2.10;;
3099;SDS011;1560;52.746;13.474;2023-04-05T21:30:21;3.02;;;2.27;;
3099;SDS011;1560;52.746;13.474;2023-04-05T21:32:50;3.60;;;2.00;;
3099;SDS011;1560;52.746;13.474;2023-04-05T21:35:19;3.05;;;2.40;;
3099;SDS011;1560;52.746;13.474;2023-04-05T21:37:57;3.25;;;2.60;;
3099;SDS011;1560;52.746;13.474;2023-04-05T21:40:26;5.08;;;3.00;;
3099;SDS011;1560;52.746;13.474;2023-04-05T21:42:55;4.78;;;2.33;;
3099;SDS011;1560;52.746;13.474;2023-04-05T21:45:24;4.67;;;2.45;;
3099;SDS011;1560;52.746;13.474;2023-04-05T21:47:53;4.62;;;2.50;;
3099;SDS011;1560;52.746;13.474;2023-04-05T21:50:22;4.80;;;2.98;;
3099;SDS011;1560;52.746;13.474;2023-04-05T21:53:00;3.65;;;2.67;;
3099;SDS011;1560;52.746;13.474;2023-04-05T21:55:30;3.62;;;2.55;;